createdAt,value
2017-04-09T00:02:52.792Z,56.83
2017-04-09T00:22:53.282Z,41.78
2017-04-09T00:42:53.682Z,14.15
2017-04-09T01:02:54.156Z,27.77
2017-04-09T01:22:54.639Z,30.31
2017-04-09T01:42:55.168Z,49.19
2017-04-09T02:02:55.645Z,30.06
2017-04-09T02:22:56.103Z,48.91
2017-04-09T02:42:56.527Z,57.66
2017-04-09T03:02:57.008Z,48.42
2017-04-09T03:42:57.968Z,11.26
2017-04-09T04:02:58.530Z,88.77
2017-04-09T04:22:15.592Z,66.19
2017-04-09T04:42:14.973Z,95.22
2017-04-09T05:02:15.477Z,42.03
2017-04-09T05:22:16.055Z,11.24
2017-04-09T05:42:16.589Z,8.94
2017-04-09T06:02:17.206Z,5.01
2017-04-09T06:22:17.767Z,6.85
2017-04-09T06:42:18.139Z,1.23
2017-04-09T07:02:18.516Z,0.10
2017-04-09T07:22:19.027Z,0.00
2017-04-09T07:42:19.493Z,0.01
2017-04-09T08:02:20.008Z,0.01
2017-04-09T08:22:20.638Z,0.05
2017-04-09T08:42:21.156Z,0.03
2017-04-09T09:02:21.721Z,0.02
2017-04-09T09:22:22.168Z,0.03
2017-04-09T09:42:22.618Z,0.10
2017-04-09T10:02:23.158Z,0.18
2017-04-09T10:37:23.973Z,0.56
2017-04-09T10:57:24.608Z,0.57
2017-04-09T11:17:25.062Z,0.73
2017-04-09T11:37:25.595Z,1.78
2017-04-09T11:57:25.987Z,26.26
2017-04-09T12:17:26.636Z,3.03
2017-04-09T12:37:27.173Z,3.24
2017-04-09T12:57:27.666Z,2.90
2017-04-09T13:17:28.150Z,1.38
2017-04-09T13:37:28.637Z,1.71
2017-04-09T13:57:29.174Z,0.66
2017-04-09T14:17:29.680Z,0.20
2017-04-09T14:37:30.229Z,0.04
2017-04-09T14:57:30.778Z,0.01
2017-04-09T15:17:31.276Z,0.01
2017-04-09T15:37:31.854Z,0.01
2017-04-09T15:57:32.253Z,0.01
2017-04-09T16:17:32.765Z,0.01
2017-04-09T16:47:33.600Z,0.00
2017-04-09T17:07:34.013Z,0.09
2017-04-09T17:27:34.479Z,2.76
2017-04-09T17:47:34.990Z,8.18
2017-04-09T18:07:35.627Z,7.70
2017-04-09T18:27:36.141Z,82.20
2017-04-09T18:48:21.256Z,31.66
2017-04-09T19:08:21.730Z,99.48
2017-04-09T19:28:22.253Z,35.47
2017-04-09T19:48:22.753Z,12.73
2017-04-09T20:08:23.223Z,22.30
2017-04-09T20:28:23.729Z,17.21
2017-04-09T20:48:24.224Z,19.19
2017-04-09T21:08:24.702Z,17.83
2017-04-09T21:28:25.089Z,24.23
2017-04-09T21:48:25.457Z,29.61
2017-04-09T22:08:26.025Z,23.10
2017-04-09T22:28:26.411Z,17.49
2017-04-09T22:48:26.887Z,15.47
2017-04-09T23:08:27.326Z,20.26
2017-04-09T23:28:27.762Z,16.54
2017-04-09T23:48:28.128Z,13.45
